To NAV CANADA Home Page Login to a new session Search on AWWS site Disclaimer Vers la page française équivalente Tips FAQ What's new on the site To the Forecasts and Observations / NOTAM section To "File a Flight Plan" website Publications and other links Update of the User's profile FIC Telephone Numbers My Weather Data Folder Route Weather Data Regional Weather Data Local Weather Data To the Forecasts and Observations / NOTAM section
Request Generated 10/19/2018 at 15:49:38 UTC . Weather information available at that time is displayed.

METAR/TAF

TERRACE/BC    

SPECI CYXT 191537Z 09003KT 1/4SM FG BKN080 07/07 A3013 RMK FG5AC2 CONDS IMPRG VIS N 8 SLP212=
METAR CYXT 191500Z 14005KT 070V140 1/8SM FG OVC080 06/06 A3013 RMK FG7AC1 SLP212=
SPECI CYXT 191453Z 09004KT 1/4SM FG OVC080 06/06 A3013 RMK FG6AC2 SLP212=
SPECI CYXT 191449Z 10003KT 3/8SM FG OVC080 06/06 A3014 RMK FG6AC2 SLP213=
SPECI CYXT 191444Z 12003KT 1/2SM FG BKN078 OVC160 06/06 A3013 RMK FG3AC3AC2 SLP212=
SPECI CYXT 191439Z 13004KT 060V150 3/4SM BR SCT015 SCT065 BKN078 OVC160 07/07 A3013 RMK FG3SF1SC1AC2AC2 SF TR SLP212=
SPECI CYXT 191425Z 16002KT 1 1/2SM BR MIFG SCT065 BKN078 OVC160 04/04 A3014 RMK FG2SC2AC3AC1 SLP214=
METAR CYXT 191400Z 00000KT 10SM VCFG SCT005 BKN065 BKN080 07/06 A3014 RMK FG2SF1SC2AC2 SLP213=
METAR CYXT 191300Z VRB02KT 15SM FEW009 BKN065 BKN120 07/07 A3015 RMK SF1SC5AC1 SLP217=

TAF AMD CYXT 191444Z 1914/2001 VRB03KT 3/4SM BR BKN005 BKN015 BKN070
TEMPO 1914/1916 3SM BR SCT005 SCT015 BKN070
FM191600 VRB03KT 6SM BR SCT005 SCT015 BKN070 TEMPO 1916/1918 1SM
BR BKN005 BKN015 BKN070
FM191800 VRB03KT P6SM SCT020 BKN060 TEMPO 1918/1920 5SM -SHRA BR
SCT008 BKN020 OVC060
BECMG 1918/1920 17012G22KT
FM192000 17012G22KT P6SM -RA SCT020 BKN040 TEMPO 1920/2001 5SM
-SHRA BR SCT008 BKN020 OVC040
RMK NXT FCST BY 191900Z=
Your time UTC time
Weather data provided by Environment Canada and NAV CANADA